sensor_id;sensor_type;location;lat;lon;timestamp;pressure;altitude;pressure_sealevel;temperature;humidity
78121;BME280;67585;44.802;10.332;2023-02-15T00:01:08;102488.16;;;8.16;50.78
78121;BME280;67585;44.802;10.332;2023-02-15T00:03:33;102479.00;;;8.10;51.20
78121;BME280;67585;44.802;10.332;2023-02-15T00:05:59;102463.94;;;8.09;50.65
78121;BME280;67585;44.802;10.332;2023-02-15T00:08:24;102478.88;;;8.19;50.20
78121;BME280;67585;44.802;10.332;2023-02-15T00:10:49;102449.13;;;8.13;50.67
78121;BME280;67585;44.802;10.332;2023-02-15T00:13:15;102484.47;;;8.24;50.83
78121;BME280;67585;44.802;10.332;2023-02-15T00:15:40;102441.19;;;8.05;50.22
78121;BME280;67585;44.802;10.332;2023-02-15T00:18:06;102464.66;;;8.25;50.07
78121;BME280;67585;44.802;10.332;2023-02-15T00:20:31;102472.06;;;8.23;50.16
78121;BME280;67585;44.802;10.332;2023-02-15T00:22:56;102453.41;;;8.08;50.57
78121;BME280;67585;44.802;10.332;2023-02-15T00:25:22;102447.50;;;8.19;50.17
78121;BME280;67585;44.802;10.332;2023-02-15T00:27:47;102463.81;;;8.24;50.45
78121;BME280;67585;44.802;10.332;2023-02-15T00:30:13;102468.25;;;8.04;51.05
78121;BME280;67585;44.802;10.332;2023-02-15T00:32:38;102470.09;;;8.03;51.05
78121;BME280;67585;44.802;10.332;2023-02-15T00:35:04;102458.88;;;7.93;50.82
78121;BME280;67585;44.802;10.332;2023-02-15T00:37:30;102480.44;;;8.06;50.28
78121;BME280;67585;44.802;10.332;2023-02-15T00:39:55;102427.91;;;7.62;51.14
78121;BME280;67585;44.802;10.332;2023-02-15T00:42:21;102478.53;;;8.00;50.03
78121;BME280;67585;44.802;10.332;2023-02-15T00:44:46;102477.28;;;7.96;50.26
78121;BME280;67585;44.802;10.332;2023-02-15T00:47:11;102460.19;;;7.76;50.82
78121;BME280;67585;44.802;10.332;2023-02-15T00:49:37;102457.91;;;7.73;51.38
78121;BME280;67585;44.802;10.332;2023-02-15T00:52:02;102478.88;;;7.90;50.71
78121;BME280;67585;44.802;10.332;2023-02-15T00:54:28;102487.56;;;7.92;51.19
78121;BME280;67585;44.802;10.332;2023-02-15T00:56:53;102467.81;;;7.72;51.47
78121;BME280;67585;44.802;10.332;2023-02-15T00:59:18;102479.47;;;7.86;50.76
78121;BME280;67585;44.802;10.332;2023-02-15T01:01:44;102463.91;;;7.75;50.61
78121;BME280;67585;44.802;10.332;2023-02-15T01:04:09;102490.59;;;7.83;50.36
78121;BME280;67585;44.802;10.332;2023-02-15T01:06:34;102487.91;;;7.83;51.16
78121;BME280;67585;44.802;10.332;2023-02-15T01:09:00;102484.91;;;7.71;51.72
78121;BME280;67585;44.802;10.332;2023-02-15T01:11:25;102460.69;;;7.58;51.28
78121;BME280;67585;44.802;10.332;2023-02-15T01:13:56;102473.41;;;7.77;50.66
78121;BME280;67585;44.802;10.332;2023-02-15T01:16:23;102444.19;;;7.61;51.47
78121;BME280;67585;44.802;10.332;2023-02-15T01:18:49;102449.97;;;7.64;50.86
78121;BME280;67585;44.802;10.332;2023-02-15T01:21:17;102468.81;;;7.71;51.51
78121;BME280;67585;44.802;10.332;2023-02-15T01:23:43;102445.84;;;7.62;50.61
78121;BME280;67585;44.802;10.332;2023-02-15T01:26:09;102459.94;;;7.70;50.51
78121;BME280;67585;44.802;10.332;2023-02-15T01:28:35;102468.00;;;7.70;50.85
78121;BME280;67585;44.802;10.332;2023-02-15T01:31:09;102447.50;;;7.63;51.01
78121;BME280;67585;44.802;10.332;2023-02-15T01:33:35;102465.81;;;7.81;51.17
78121;BME280;67585;44.802;10.332;2023-02-15T01:36:00;102459.84;;;7.85;51.22
78121;BME280;67585;44.802;10.332;2023-02-15T01:38:26;102453.44;;;7.80;51.28
78121;BME280;67585;44.802;10.332;2023-02-15T01:40:53;102443.41;;;7.67;51.14
78121;BME280;67585;44.802;10.332;2023-02-15T01:43:18;102447.75;;;7.68;51.02
78121;BME280;67585;44.802;10.332;2023-02-15T01:45:47;102446.28;;;7.65;50.79
78121;BME280;67585;44.802;10.332;2023-02-15T01:48:22;102438.44;;;7.64;50.79
78121;BME280;67585;44.802;10.332;2023-02-15T01:50:56;102445.25;;;7.66;51.19
78121;BME280;67585;44.802;10.332;2023-02-15T01:53:42;102446.28;;;7.65;51.19
78121;BME280;67585;44.802;10.332;2023-02-15T01:56:15;102437.69;;;7.48;51.57
78121;BME280;67585;44.802;10.332;2023-02-15T01:58:42;102438.69;;;7.47;50.96
78121;BME280;67585;44.802;10.332;2023-02-15T02:01:08;102439.09;;;7.44;52.03
78121;BME280;67585;44.802;10.332;2023-02-15T02:03:38;102448.50;;;7.55;51.03
78121;BME280;67585;44.802;10.332;2023-02-15T02:06:04;102448.66;;;7.54;51.56
78121;BME280;67585;44.802;10.332;2023-02-15T02:08:30;102429.66;;;7.48;50.98
78121;BME280;67585;44.802;10.332;2023-02-15T02:10:56;102419.25;;;7.39;52.45
78121;BME280;67585;44.802;10.332;2023-02-15T02:13:22;102373.28;;;7.14;50.98
78121;BME280;67585;44.802;10.332;2023-02-15T02:18:27;102428.19;;;7.46;51.76
78121;BME280;67585;44.802;10.332;2023-02-15T02:34:56;102418.41;;;7.60;50.09
78121;BME280;67585;44.802;10.332;2023-02-15T02:37:54;102413.81;;;7.54;50.75
78121;BME280;67585;44.802;10.332;2023-02-15T02:40:25;102422.22;;;7.72;50.59
78121;BME280;67585;44.802;10.332;2023-02-15T02:43:11;102408.94;;;7.64;52.71
78121;BME280;67585;44.802;10.332;2023-02-15T02:45:50;102420.75;;;7.69;50.29
78121;BME280;67585;44.802;10.332;2023-02-15T02:48:21;102405.59;;;7.55;50.42
78121;BME280;67585;44.802;10.332;2023-02-15T02:50:47;102401.22;;;7.54;49.81
78121;BME280;67585;44.802;10.332;2023-02-15T02:53:13;102381.69;;;7.60;50.33
78121;BME280;67585;44.802;10.332;2023-02-15T03:00:35;102361.09;;;7.39;49.92
78121;BME280;67585;44.802;10.332;2023-02-15T03:03:07;102399.75;;;7.52;49.72
78121;BME280;67585;44.802;10.332;2023-02-15T03:05:39;102407.94;;;7.71;50.33
78121;BME280;67585;44.802;10.332;2023-02-15T03:08:06;102397.13;;;7.58;49.72
78121;BME280;67585;44.802;10.332;2023-02-15T03:10:37;102398.06;;;7.44;50.44
78121;BME280;67585;44.802;10.332;2023-02-15T03:13:03;102378.75;;;7.27;50.05
78121;BME280;67585;44.802;10.332;2023-02-15T03:15:33;102391.47;;;7.46;49.75
78121;BME280;67585;44.802;10.332;2023-02-15T03:18:22;102400.31;;;7.40;50.90
78121;BME280;67585;44.802;10.332;2023-02-15T03:20:52;102398.31;;;7.49;49.90
78121;BME280;67585;44.802;10.332;2023-02-15T03:23:23;102390.53;;;7.33;50.97
78121;BME280;67585;44.802;10.332;2023-02-15T03:25:52;102391.22;;;7.41;50.81
78121;BME280;67585;44.802;10.332;2023-02-15T03:28:29;102400.31;;;7.40;50.83
78121;BME280;67585;44.802;10.332;2023-02-15T03:31:00;102401.25;;;7.33;50.62
78121;BME280;67585;44.802;10.332;2023-02-15T03:33:27;102380.59;;;7.26;50.60
78121;BME280;67585;44.802;10.332;2023-02-15T03:36:09;102401.69;;;7.58;50.09
78121;BME280;67585;44.802;10.332;2023-02-15T03:38:48;102408.38;;;7.47;50.51
78121;BME280;67585;44.802;10.332;2023-02-15T03:41:16;102403.50;;;7.57;49.35
78121;BME280;67585;44.802;10.332;2023-02-15T03:44:00;102392.78;;;7.29;49.31
78121;BME280;67585;44.802;10.332;2023-02-15T03:49:08;102392.19;;;7.34;49.62
78121;BME280;67585;44.802;10.332;2023-02-15T03:51:38;102388.06;;;7.31;50.56
78121;BME280;67585;44.802;10.332;2023-02-15T03:54:15;102398.53;;;7.26;49.46
78121;BME280;67585;44.802;10.332;2023-02-15T03:57:07;102403.69;;;7.27;50.02
78121;BME280;67585;44.802;10.332;2023-02-15T03:59:51;102410.19;;;7.18;50.97
78121;BME280;67585;44.802;10.332;2023-02-15T04:02:48;102386.41;;;6.87;51.43
78121;BME280;67585;44.802;10.332;2023-02-15T04:05:17;102353.03;;;6.68;51.80
78121;BME280;67585;44.802;10.332;2023-02-15T04:07:43;102410.50;;;7.09;51.22
78121;BME280;67585;44.802;10.332;2023-02-15T04:10:08;102391.94;;;6.85;51.24
78121;BME280;67585;44.802;10.332;2023-02-15T04:12:52;102411.47;;;7.01;50.73
78121;BME280;67585;44.802;10.332;2023-02-15T04:15:17;102391.22;;;6.77;52.34
78121;BME280;67585;44.802;10.332;2023-02-15T04:18:05;102407.22;;;7.06;50.97
78121;BME280;67585;44.802;10.332;2023-02-15T04:20:30;102392.53;;;7.02;50.80
78121;BME280;67585;44.802;10.332;2023-02-15T04:23:14;102400.50;;;6.96;51.52
78121;BME280;67585;44.802;10.332;2023-02-15T04:25:58;102395.28;;;6.88;51.35
78121;BME280;67585;44.802;10.332;2023-02-15T04:28:23;102399.03;;;6.93;52.11
78121;BME280;67585;44.802;10.332;2023-02-15T04:30:49;102396.59;;;6.98;51.46
78121;BME280;67585;44.802;10.332;2023-02-15T04:33:14;102391.13;;;6.85;50.78
78121;BME280;67585;44.802;10.332;2023-02-15T04:35:40;102391.66;;;7.17;50.59
78121;BME280;67585;44.802;10.332;2023-02-15T04:38:05;102388.81;;;7.03;50.44
78121;BME280;67585;44.802;10.332;2023-02-15T04:40:31;102385.94;;;6.83;51.08
78121;BME280;67585;44.802;10.332;2023-02-15T04:42:56;102367.97;;;6.77;50.76
78121;BME280;67585;44.802;10.332;2023-02-15T04:45:21;102394.50;;;6.94;50.52
78121;BME280;67585;44.802;10.332;2023-02-15T04:47:47;102404.25;;;7.01;50.45
78121;BME280;67585;44.802;10.332;2023-02-15T04:50:12;102386.59;;;7.07;50.56
78121;BME280;67585;44.802;10.332;2023-02-15T04:52:38;102399.22;;;7.13;50.61
78121;BME280;67585;44.802;10.332;2023-02-15T04:55:03;102399.78;;;7.09;50.41
78121;BME280;67585;44.802;10.332;2023-02-15T04:57:29;102406.13;;;7.22;50.10
78121;BME280;67585;44.802;10.332;2023-02-15T04:59:54;102375.81;;;7.00;50.56
78121;BME280;67585;44.802;10.332;2023-02-15T05:02:20;102361.34;;;6.95;51.29
78121;BME280;67585;44.802;10.332;2023-02-15T05:04:45;102402.94;;;7.12;50.11
78121;BME280;67585;44.802;10.332;2023-02-15T05:07:10;102404.38;;;6.93;50.58
78121;BME280;67585;44.802;10.332;2023-02-15T05:09:36;102386.66;;;6.71;50.97
78121;BME280;67585;44.802;10.332;2023-02-15T05:12:01;102396.81;;;6.97;51.22
78121;BME280;67585;44.802;10.332;2023-02-15T05:14:26;102385.63;;;6.93;50.65
78121;BME280;67585;44.802;10.332;2023-02-15T05:16:52;102397.00;;;6.95;50.82
78121;BME280;67585;44.802;10.332;2023-02-15T05:19:19;102390.47;;;6.83;50.79
78121;BME280;67585;44.802;10.332;2023-02-15T05:21:44;102394.66;;;7.07;50.60
78121;BME280;67585;44.802;10.332;2023-02-15T05:24:10;102402.59;;;7.00;51.04
78121;BME280;67585;44.802;10.332;2023-02-15T05:26:53;102376.31;;;6.89;50.25
78121;BME280;67585;44.802;10.332;2023-02-15T05:29:37;102395.13;;;6.96;50.19
78121;BME280;67585;44.802;10.332;2023-02-15T05:32:03;102395.97;;;6.96;50.75
78121;BME280;67585;44.802;10.332;2023-02-15T05:34:29;102355.97;;;6.73;50.65
78121;BME280;67585;44.802;10.332;2023-02-15T05:36:54;102385.88;;;6.98;51.05
78121;BME280;67585;44.802;10.332;2023-02-15T05:39:20;102394.56;;;7.00;50.71
78121;BME280;67585;44.802;10.332;2023-02-15T05:41:45;102363.63;;;6.76;51.21
78121;BME280;67585;44.802;10.332;2023-02-15T05:44:10;102390.91;;;6.87;51.05
78121;BME280;67585;44.802;10.332;2023-02-15T05:46:36;102385.25;;;6.75;51.22
78121;BME280;67585;44.802;10.332;2023-02-15T05:49:01;102360.34;;;6.59;51.71
78121;BME280;67585;44.802;10.332;2023-02-15T05:51:26;102391.75;;;6.66;51.69
78121;BME280;67585;44.802;10.332;2023-02-15T05:53:52;102375.59;;;6.59;51.24
78121;BME280;67585;44.802;10.332;2023-02-15T05:56:17;102394.13;;;6.75;50.73
78121;BME280;67585;44.802;10.332;2023-02-15T05:58:42;102373.78;;;6.45;51.51
78121;BME280;67585;44.802;10.332;2023-02-15T06:01:16;102378.41;;;6.51;51.60
78121;BME280;67585;44.802;10.332;2023-02-15T06:03:43;102369.81;;;6.40;51.15
78121;BME280;67585;44.802;10.332;2023-02-15T06:06:08;102368.97;;;6.40;51.02
78121;BME280;67585;44.802;10.332;2023-02-15T06:08:35;102399.88;;;6.57;51.56
78121;BME280;67585;44.802;10.332;2023-02-15T06:11:00;102384.41;;;6.38;50.89
78121;BME280;67585;44.802;10.332;2023-02-15T06:13:26;102401.47;;;6.52;51.84
78121;BME280;67585;44.802;10.332;2023-02-15T06:15:52;102381.63;;;6.46;50.42
78121;BME280;67585;44.802;10.332;2023-02-15T06:18:17;102397.75;;;6.53;51.34
78121;BME280;67585;44.802;10.332;2023-02-15T06:20:45;102369.84;;;6.26;50.67
78121;BME280;67585;44.802;10.332;2023-02-15T06:23:10;102390.13;;;6.35;51.11
78121;BME280;67585;44.802;10.332;2023-02-15T06:25:36;102379.97;;;6.45;51.43
78121;BME280;67585;44.802;10.332;2023-02-15T06:28:01;102383.94;;;6.49;51.19
78121;BME280;67585;44.802;10.332;2023-02-15T06:30:26;102407.16;;;6.63;50.13
78121;BME280;67585;44.802;10.332;2023-02-15T06:32:52;102385.47;;;6.58;51.10
78121;BME280;67585;44.802;10.332;2023-02-15T06:35:17;102380.44;;;6.49;50.58
78121;BME280;67585;44.802;10.332;2023-02-15T06:37:45;102409.28;;;6.68;50.69
78121;BME280;67585;44.802;10.332;2023-02-15T06:40:11;102406.91;;;6.58;51.40
78121;BME280;67585;44.802;10.332;2023-02-15T06:42:37;102424.06;;;6.64;50.36
78121;BME280;67585;44.802;10.332;2023-02-15T06:45:03;102429.84;;;6.82;50.60
78121;BME280;67585;44.802;10.332;2023-02-15T06:47:29;102430.78;;;6.75;50.36
78121;BME280;67585;44.802;10.332;2023-02-15T06:49:54;102400.81;;;6.50;50.82
78121;BME280;67585;44.802;10.332;2023-02-15T06:52:20;102408.41;;;9.26;53.22
78121;BME280;67585;44.802;10.332;2023-02-15T06:54:45;102432.19;;;9.36;46.53
78121;BME280;67585;44.802;10.332;2023-02-15T06:57:11;102407.56;;;9.39;44.75
78121;BME280;67585;44.802;10.332;2023-02-15T06:59:36;102342.81;;;9.40;42.82
78121;BME280;67585;44.802;10.332;2023-02-15T07:02:02;102422.25;;;9.63;43.87
78121;BME280;67585;44.802;10.332;2023-02-15T07:04:27;102317.97;;;7.34;45.46
78121;BME280;67585;44.802;10.332;2023-02-15T07:06:54;102347.69;;;6.90;47.08
78121;BME280;67585;44.802;10.332;2023-02-15T07:09:20;102361.06;;;6.68;48.64
78121;BME280;67585;44.802;10.332;2023-02-15T07:11:45;102434.84;;;7.07;48.17
78121;BME280;67585;44.802;10.332;2023-02-15T07:14:30;102374.59;;;6.81;47.95
78121;BME280;67585;44.802;10.332;2023-02-15T07:16:55;102423.97;;;7.15;48.67
78121;BME280;67585;44.802;10.332;2023-02-15T07:19:20;102396.47;;;6.85;47.93
78121;BME280;67585;44.802;10.332;2023-02-15T07:21:46;102397.25;;;7.00;48.27
78121;BME280;67585;44.802;10.332;2023-02-15T07:24:11;102412.44;;;6.93;48.23
78121;BME280;67585;44.802;10.332;2023-02-15T07:26:37;102419.31;;;7.02;48.42
78121;BME280;67585;44.802;10.332;2023-02-15T07:29:02;102442.88;;;7.28;47.61
78121;BME280;67585;44.802;10.332;2023-02-15T07:31:28;102436.66;;;7.28;47.85
78121;BME280;67585;44.802;10.332;2023-02-15T07:33:53;102414.78;;;7.24;48.67
78121;BME280;67585;44.802;10.332;2023-02-15T07:36:19;102413.81;;;7.32;47.15
78121;BME280;67585;44.802;10.332;2023-02-15T07:38:44;102426.34;;;7.46;47.70
78121;BME280;67585;44.802;10.332;2023-02-15T07:41:14;102425.56;;;7.53;47.37
78121;BME280;67585;44.802;10.332;2023-02-15T07:43:42;102444.38;;;7.59;47.12
78121;BME280;67585;44.802;10.332;2023-02-15T07:46:12;102430.59;;;7.62;46.38
78121;BME280;67585;44.802;10.332;2023-02-15T07:48:39;102424.34;;;7.55;46.85
78121;BME280;67585;44.802;10.332;2023-02-15T07:51:06;102447.03;;;7.81;47.22
78121;BME280;67585;44.802;10.332;2023-02-15T07:53:33;102446.53;;;7.99;46.43
78121;BME280;67585;44.802;10.332;2023-02-15T07:56:03;102427.06;;;8.18;46.35
78121;BME280;67585;44.802;10.332;2023-02-15T07:58:29;102440.44;;;8.46;45.86
78121;BME280;67585;44.802;10.332;2023-02-15T08:01:14;102456.41;;;8.61;44.72
78121;BME280;67585;44.802;10.332;2023-02-15T08:03:40;102431.41;;;8.61;45.17
78121;BME280;67585;44.802;10.332;2023-02-15T08:06:06;102437.88;;;8.80;45.11
78121;BME280;67585;44.802;10.332;2023-02-15T08:08:33;102443.56;;;9.18;44.55
78121;BME280;67585;44.802;10.332;2023-02-15T08:11:09;102437.56;;;9.56;43.59
78121;BME280;67585;44.802;10.332;2023-02-15T08:14:08;102442.94;;;9.89;45.12
78121;BME280;67585;44.802;10.332;2023-02-15T08:16:41;102442.88;;;10.16;42.51
78121;BME280;67585;44.802;10.332;2023-02-15T08:21:34;102446.72;;;10.53;42.20
78121;BME280;67585;44.802;10.332;2023-02-15T08:24:00;102438.41;;;10.68;43.18
78121;BME280;67585;44.802;10.332;2023-02-15T08:26:27;102441.22;;;10.28;43.14
78121;BME280;67585;44.802;10.332;2023-02-15T08:28:54;102420.41;;;10.55;43.22
78121;BME280;67585;44.802;10.332;2023-02-15T08:31:20;102438.53;;;10.80;43.61
78121;BME280;67585;44.802;10.332;2023-02-15T08:33:47;102417.81;;;10.80;43.14
78121;BME280;67585;44.802;10.332;2023-02-15T08:36:18;102394.66;;;10.66;43.21
78121;BME280;67585;44.802;10.332;2023-02-15T08:38:44;102396.47;;;10.72;43.92
78121;BME280;67585;44.802;10.332;2023-02-15T08:43:46;102440.41;;;11.43;44.08
78121;BME280;67585;44.802;10.332;2023-02-15T08:46:13;102432.38;;;11.61;43.21
78121;BME280;67585;44.802;10.332;2023-02-15T08:48:40;102430.09;;;11.33;44.17
78121;BME280;67585;44.802;10.332;2023-02-15T08:51:14;102443.72;;;11.45;44.26
78121;BME280;67585;44.802;10.332;2023-02-15T08:53:42;102425.38;;;11.28;45.01
78121;BME280;67585;44.802;10.332;2023-02-15T08:56:08;102398.47;;;11.22;44.68
78121;BME280;67585;44.802;10.332;2023-02-15T08:58:34;102439.25;;;11.57;43.43
78121;BME280;67585;44.802;10.332;2023-02-15T09:01:00;102434.63;;;11.64;43.57
78121;BME280;67585;44.802;10.332;2023-02-15T09:03:27;102449.19;;;11.63;42.90
78121;BME280;67585;44.802;10.332;2023-02-15T09:05:59;102437.28;;;11.96;42.83
78121;BME280;67585;44.802;10.332;2023-02-15T09:08:26;102437.34;;;11.89;43.34
78121;BME280;67585;44.802;10.332;2023-02-15T09:10:51;102450.59;;;12.34;42.05
78121;BME280;67585;44.802;10.332;2023-02-15T09:13:17;102448.50;;;12.85;41.31
78121;BME280;67585;44.802;10.332;2023-02-15T09:15:42;102398.25;;;13.19;40.12
78121;BME280;67585;44.802;10.332;2023-02-15T09:18:07;102411.59;;;12.91;41.22
78121;BME280;67585;44.802;10.332;2023-02-15T09:20:36;102438.59;;;13.51;40.01
78121;BME280;67585;44.802;10.332;2023-02-15T09:23:01;102448.16;;;13.89;39.20
78121;BME280;67585;44.802;10.332;2023-02-15T09:25:27;102418.47;;;13.82;39.28
78121;BME280;67585;44.802;10.332;2023-02-15T09:27:52;102415.84;;;12.98;40.81
78121;BME280;67585;44.802;10.332;2023-02-15T09:30:18;102442.28;;;13.26;41.63
78121;BME280;67585;44.802;10.332;2023-02-15T09:32:43;102403.16;;;12.99;41.20
78121;BME280;67585;44.802;10.332;2023-02-15T09:35:11;102433.63;;;13.36;41.51
78121;BME280;67585;44.802;10.332;2023-02-15T09:37:37;102440.97;;;13.59;40.64
78121;BME280;67585;44.802;10.332;2023-02-15T09:40:03;102439.09;;;13.72;40.28
78121;BME280;67585;44.802;10.332;2023-02-15T09:53:25;102444.03;;;14.50;37.54
78121;BME280;67585;44.802;10.332;2023-02-15T09:56:20;102441.53;;;14.72;36.61
78121;BME280;67585;44.802;10.332;2023-02-15T10:09:49;102433.28;;;14.96;36.31
78121;BME280;67585;44.802;10.332;2023-02-15T10:12:32;102429.94;;;15.06;35.05
78121;BME280;67585;44.802;10.332;2023-02-15T10:18:06;102427.28;;;14.65;36.17
78121;BME280;67585;44.802;10.332;2023-02-15T10:24:07;102424.03;;;15.26;36.07
78121;BME280;67585;44.802;10.332;2023-02-15T10:26:44;102401.09;;;14.88;35.81
78121;BME280;67585;44.802;10.332;2023-02-15T10:29:35;102415.47;;;15.00;36.42
78121;BME280;67585;44.802;10.332;2023-02-15T10:32:20;102393.34;;;15.42;34.95
78121;BME280;67585;44.802;10.332;2023-02-15T10:48:46;102398.19;;;16.13;34.28
78121;BME280;67585;44.802;10.332;2023-02-15T10:54:17;102392.84;;;15.28;35.37
78121;BME280;67585;44.802;10.332;2023-02-15T10:57:02;102392.09;;;16.06;34.43
78121;BME280;67585;44.802;10.332;2023-02-15T11:02:20;102353.63;;;15.75;33.85
78121;BME280;67585;44.802;10.332;2023-02-15T11:11:55;102230.34;;;14.98;34.65
78121;BME280;67585;44.802;10.332;2023-02-15T11:17:41;102284.81;;;16.67;31.97
78121;BME280;67585;44.802;10.332;2023-02-15T11:20:45;102359.53;;;16.33;33.15
78121;BME280;67585;44.802;10.332;2023-02-15T11:23:20;102332.28;;;16.28;33.65
78121;BME280;67585;44.802;10.332;2023-02-15T11:26:00;102250.91;;;16.48;32.47
78121;BME280;67585;44.802;10.332;2023-02-15T11:28:56;102199.16;;;16.43;32.03
78121;BME280;67585;44.802;10.332;2023-02-15T11:31:26;102288.38;;;16.73;31.78
78121;BME280;67585;44.802;10.332;2023-02-15T11:36:55;102224.31;;;16.01;32.69
78121;BME280;67585;44.802;10.332;2023-02-15T11:39:24;102132.81;;;15.57;34.17
78121;BME280;67585;44.802;10.332;2023-02-15T11:41:56;102129.31;;;15.35;34.48
78121;BME280;67585;44.802;10.332;2023-02-15T11:44:41;102183.91;;;15.60;33.67
78121;BME280;67585;44.802;10.332;2023-02-15T11:47:11;102234.53;;;15.89;33.66
78121;BME280;67585;44.802;10.332;2023-02-15T11:49:38;102318.25;;;16.63;33.98
78121;BME280;67585;44.802;10.332;2023-02-15T11:52:15;102262.72;;;16.64;33.30
78121;BME280;67585;44.802;10.332;2023-02-15T11:54:44;102306.34;;;16.74;32.89
78121;BME280;67585;44.802;10.332;2023-02-15T11:57:33;102288.75;;;16.55;33.52
78121;BME280;67585;44.802;10.332;2023-02-15T12:02:31;102239.63;;;16.34;34.17
78121;BME280;67585;44.802;10.332;2023-02-15T12:05:07;102209.53;;;16.19;33.32
78121;BME280;67585;44.802;10.332;2023-02-15T12:07:37;102277.94;;;16.87;34.39
78121;BME280;67585;44.802;10.332;2023-02-15T12:12:39;102285.91;;;16.72;34.18
78121;BME280;67585;44.802;10.332;2023-02-15T12:15:10;102280.03;;;16.80;34.30
78121;BME280;67585;44.802;10.332;2023-02-15T12:17:47;102269.34;;;16.19;33.57
78121;BME280;67585;44.802;10.332;2023-02-15T12:22:46;102236.16;;;16.76;32.80
78121;BME280;67585;44.802;10.332;2023-02-15T12:25:50;102266.84;;;18.14;31.10
78121;BME280;67585;44.802;10.332;2023-02-15T12:28:28;102259.84;;;17.61;32.18
78121;BME280;67585;44.802;10.332;2023-02-15T12:30:56;102266.88;;;17.51;31.84
78121;BME280;67585;44.802;10.332;2023-02-15T12:36:09;102231.06;;;17.85;31.24
78121;BME280;67585;44.802;10.332;2023-02-15T12:38:37;102247.19;;;18.02;30.59
78121;BME280;67585;44.802;10.332;2023-02-15T12:41:04;102246.41;;;18.07;30.84
78121;BME280;67585;44.802;10.332;2023-02-15T12:43:37;102245.91;;;18.35;30.58
78121;BME280;67585;44.802;10.332;2023-02-15T12:46:25;102245.28;;;17.98;30.77
78121;BME280;67585;44.802;10.332;2023-02-15T12:49:17;102246.59;;;17.85;31.41
78121;BME280;67585;44.802;10.332;2023-02-15T12:55:20;102245.09;;;17.51;31.54
78121;BME280;67585;44.802;10.332;2023-02-15T12:57:46;102229.34;;;17.74;31.34
78121;BME280;67585;44.802;10.332;2023-02-15T13:00:27;102230.84;;;18.07;30.68
78121;BME280;67585;44.802;10.332;2023-02-15T13:02:55;102225.66;;;18.01;30.81
78121;BME280;67585;44.802;10.332;2023-02-15T13:05:28;102219.38;;;17.95;30.67
78121;BME280;67585;44.802;10.332;2023-02-15T13:07:57;102192.63;;;17.14;31.33
78121;BME280;67585;44.802;10.332;2023-02-15T13:10:27;102218.97;;;17.08;35.40
78121;BME280;67585;44.802;10.332;2023-02-15T13:12:55;102204.13;;;16.51;34.11
78121;BME280;67585;44.802;10.332;2023-02-15T13:15:35;102174.72;;;16.16;34.39
78121;BME280;67585;44.802;10.332;2023-02-15T13:18:02;102163.03;;;16.48;32.80
78121;BME280;67585;44.802;10.332;2023-02-15T13:20:28;102168.47;;;16.48;33.38
78121;BME280;67585;44.802;10.332;2023-02-15T13:23:01;102187.75;;;16.78;33.19
78121;BME280;67585;44.802;10.332;2023-02-15T13:25:30;102156.69;;;16.37;33.18
78121;BME280;67585;44.802;10.332;2023-02-15T13:28:04;102182.50;;;16.34;34.51
78121;BME280;67585;44.802;10.332;2023-02-15T13:30:31;102184.22;;;16.13;34.81
78121;BME280;67585;44.802;10.332;2023-02-15T13:33:04;102180.06;;;16.06;35.02
78121;BME280;67585;44.802;10.332;2023-02-15T13:35:46;102175.09;;;16.24;33.61
78121;BME280;67585;44.802;10.332;2023-02-15T13:38:37;102181.31;;;16.57;33.21
78121;BME280;67585;44.802;10.332;2023-02-15T13:41:16;102130.44;;;16.20;34.28
78121;BME280;67585;44.802;10.332;2023-02-15T13:43:58;102166.59;;;16.48;33.58
78121;BME280;67585;44.802;10.332;2023-02-15T13:46:54;102174.63;;;16.70;32.80
78121;BME280;67585;44.802;10.332;2023-02-15T13:52:26;102165.66;;;16.37;33.19
78121;BME280;67585;44.802;10.332;2023-02-15T13:54:57;102172.47;;;16.40;33.22
78121;BME280;67585;44.802;10.332;2023-02-15T14:00:29;102166.84;;;16.14;34.68
78121;BME280;67585;44.802;10.332;2023-02-15T14:06:42;102147.25;;;16.50;33.30
78121;BME280;67585;44.802;10.332;2023-02-15T14:09:42;102155.53;;;16.28;33.24
78121;BME280;67585;44.802;10.332;2023-02-15T14:15:11;102145.59;;;16.43;32.99
78121;BME280;67585;44.802;10.332;2023-02-15T14:28:13;102146.84;;;16.31;33.65
78121;BME280;67585;44.802;10.332;2023-02-15T14:30:46;102119.28;;;16.17;33.12
78121;BME280;67585;44.802;10.332;2023-02-15T14:33:39;102141.06;;;16.22;33.43
78121;BME280;67585;44.802;10.332;2023-02-15T14:36:16;102140.38;;;16.37;32.77
78121;BME280;67585;44.802;10.332;2023-02-15T14:41:35;102142.66;;;16.18;33.58
78121;BME280;67585;44.802;10.332;2023-02-15T14:44:17;102138.53;;;16.10;33.61
78121;BME280;67585;44.802;10.332;2023-02-15T14:46:56;102138.47;;;16.05;33.40
78121;BME280;67585;44.802;10.332;2023-02-15T14:49:35;102124.63;;;16.07;32.91
78121;BME280;67585;44.802;10.332;2023-02-15T14:52:09;102126.06;;;16.14;33.05
78121;BME280;67585;44.802;10.332;2023-02-15T14:59:39;102117.50;;;16.00;33.65
78121;BME280;67585;44.802;10.332;2023-02-15T15:04:40;102116.81;;;16.15;34.05
78121;BME280;67585;44.802;10.332;2023-02-15T15:07:22;102106.59;;;15.95;33.85
78121;BME280;67585;44.802;10.332;2023-02-15T15:10:34;102113.94;;;15.95;32.63
78121;BME280;67585;44.802;10.332;2023-02-15T15:12:56;102089.44;;;15.68;34.29
78121;BME280;67585;44.802;10.332;2023-02-15T15:17:58;102108.44;;;15.90;32.76
78121;BME280;67585;44.802;10.332;2023-02-15T15:31:32;102094.19;;;16.05;33.96
78121;BME280;67585;44.802;10.332;2023-02-15T15:34:33;102116.47;;;16.07;34.26